createdAt,value
2022-11-09T00:01:37.675Z,100197.59
2022-11-09T00:04:05.406Z,100203.72
2022-11-09T00:06:32.732Z,100200.94
2022-11-09T00:09:05.797Z,100199.81
2022-11-09T00:11:33.675Z,100197.72
2022-11-09T00:13:59.963Z,100199.56
2022-11-09T00:16:26.287Z,100196.34
2022-11-09T00:18:53.735Z,100191.00
2022-11-09T00:21:21.845Z,100189.78
2022-11-09T00:23:48.688Z,100186.97
2022-11-09T00:26:16.690Z,100195.63
2022-11-09T00:28:43.236Z,100190.53
2022-11-09T00:31:17.764Z,100195.81
2022-11-09T00:33:48.053Z,100188.00
2022-11-09T00:36:14.351Z,100178.44
2022-11-09T00:38:42.317Z,100184.53
2022-11-09T00:41:10.983Z,100185.59
2022-11-09T00:43:37.466Z,100177.75
2022-11-09T00:46:04.251Z,100173.22
2022-11-09T00:48:30.724Z,100174.38
2022-11-09T00:50:57.905Z,100162.31
2022-11-09T00:53:25.203Z,100171.78
2022-11-09T00:56:03.480Z,100163.06
2022-11-09T00:58:31.645Z,100172.50
2022-11-09T01:01:00.091Z,100165.59
2022-11-09T01:03:27.047Z,100171.91
2022-11-09T01:05:53.344Z,100169.34
2022-11-09T01:08:19.672Z,100173.69
2022-11-09T01:10:48.395Z,100163.13
2022-11-09T01:13:16.755Z,100164.13
2022-11-09T01:15:52.267Z,100169.50
2022-11-09T01:18:20.984Z,100167.09
2022-11-09T01:20:49.300Z,100164.69
2022-11-09T01:23:18.045Z,100175.06
2022-11-09T01:25:44.729Z,100166.13
2022-11-09T01:28:11.890Z,100154.00
2022-11-09T01:30:40.991Z,100153.94
2022-11-09T01:33:09.733Z,100149.81
2022-11-09T01:35:38.053Z,100148.28
2022-11-09T01:38:05.792Z,100137.50
2022-11-09T01:40:33.496Z,100134.91
2022-11-09T01:43:06.794Z,100137.25
2022-11-09T01:45:33.118Z,100133.53
2022-11-09T01:48:13.368Z,100133.84
2022-11-09T01:50:42.983Z,100133.38
2022-11-09T01:53:15.638Z,100143.13
2022-11-09T01:55:44.049Z,100137.72
2022-11-09T01:58:18.099Z,100139.50
2022-11-09T02:00:48.830Z,100145.75
2022-11-09T02:03:22.696Z,100139.91
2022-11-09T02:05:49.799Z,100132.59
2022-11-09T02:08:19.961Z,100130.72
2022-11-09T02:11:00.487Z,100134.25
2022-11-09T02:13:29.526Z,100130.66
2022-11-09T02:15:56.224Z,100140.31
2022-11-09T02:18:22.778Z,100141.16
2022-11-09T02:20:54.181Z,100136.06
2022-11-09T02:23:21.855Z,100135.94
2022-11-09T02:25:56.654Z,100135.09
2022-11-09T02:28:24.869Z,100122.69
2022-11-09T02:30:54.315Z,100134.84
2022-11-09T02:33:21.716Z,100133.00
2022-11-09T02:35:48.332Z,100131.16
2022-11-09T02:38:15.011Z,100126.53
2022-11-09T02:40:48.167Z,100121.19
2022-11-09T02:43:15.335Z,100121.28
2022-11-09T02:45:41.682Z,100124.56
2022-11-09T02:48:08.089Z,100115.78
2022-11-09T02:50:36.905Z,100123.63
2022-11-09T02:53:03.962Z,100132.63
2022-11-09T02:55:30.491Z,100133.44
2022-11-09T02:57:56.834Z,100130.81
2022-11-09T03:00:23.122Z,100134.03
2022-11-09T03:02:49.401Z,100126.13
2022-11-09T03:05:15.774Z,100134.69
2022-11-09T03:07:42.097Z,100140.69
2022-11-09T03:10:08.844Z,100136.13
2022-11-09T03:12:35.248Z,100137.09
2022-11-09T03:15:06.431Z,100139.59
2022-11-09T03:17:33.233Z,100137.09
2022-11-09T03:19:59.578Z,100142.41
2022-11-09T03:22:25.922Z,100140.84
2022-11-09T03:24:52.300Z,100138.00
2022-11-09T03:27:18.615Z,100141.38
2022-11-09T03:29:44.915Z,100136.31
2022-11-09T03:32:11.325Z,100143.47
2022-11-09T03:34:37.677Z,100145.38
2022-11-09T03:37:04.233Z,100141.31
2022-11-09T03:39:30.565Z,100138.47
2022-11-09T03:41:56.931Z,100139.47
2022-11-09T03:44:23.235Z,100136.84
2022-11-09T03:46:49.601Z,100129.78
2022-11-09T03:49:15.938Z,100134.34
2022-11-09T03:51:42.314Z,100134.25
2022-11-09T03:54:08.652Z,100141.97
2022-11-09T03:56:34.967Z,100135.03
2022-11-09T03:59:01.303Z,100140.34
2022-11-09T04:01:27.657Z,100129.91
2022-11-09T04:03:53.996Z,100129.69
2022-11-09T04:06:20.321Z,100127.78
2022-11-09T04:08:51.082Z,100121.75
2022-11-09T04:11:19.401Z,100125.19
2022-11-09T04:13:47.128Z,100120.84
2022-11-09T04:16:13.445Z,100138.13
2022-11-09T04:18:39.736Z,100128.72
2022-11-09T04:21:06.119Z,100122.44
2022-11-09T04:23:32.454Z,100121.63
2022-11-09T04:25:59.601Z,100123.19
2022-11-09T04:28:26.313Z,100122.44
2022-11-09T04:30:52.600Z,100123.16
2022-11-09T04:33:19.256Z,100118.91
2022-11-09T04:35:45.840Z,100131.19
2022-11-09T04:38:13.921Z,100129.00
2022-11-09T04:40:40.493Z,100130.75
2022-11-09T04:43:10.629Z,100126.28
2022-11-09T04:45:36.992Z,100128.00
2022-11-09T04:48:05.768Z,100124.47
2022-11-09T04:50:32.930Z,100119.56
2022-11-09T04:53:11.382Z,100118.94
2022-11-09T04:55:38.849Z,100111.22
2022-11-09T04:58:05.725Z,100117.31
2022-11-09T05:00:32.354Z,100120.19
2022-11-09T05:03:03.154Z,100124.38
2022-11-09T05:05:29.756Z,100120.88
2022-11-09T05:07:56.359Z,100130.31
2022-11-09T05:10:22.650Z,100126.22
2022-11-09T05:12:48.992Z,100123.63
2022-11-09T05:15:15.457Z,100125.38
2022-11-09T05:17:41.794Z,100127.19
2022-11-09T05:20:08.497Z,100135.94
2022-11-09T05:22:58.359Z,100143.06
2022-11-09T05:25:24.715Z,100148.09
2022-11-09T05:27:51.748Z,100137.66
2022-11-09T05:30:18.537Z,100146.19
2022-11-09T05:32:44.888Z,100145.38
2022-11-09T05:35:11.287Z,100153.13
2022-11-09T05:37:40.743Z,100147.88
2022-11-09T05:40:09.337Z,100153.00
2022-11-09T05:42:40.098Z,100146.38
2022-11-09T05:45:40.213Z,100143.81
2022-11-09T05:47:57.442Z,100139.28
2022-11-09T05:50:23.801Z,100146.03
2022-11-09T05:52:50.304Z,100137.16
2022-11-09T05:55:16.807Z,100139.63
2022-11-09T05:57:43.116Z,100129.06
2022-11-09T06:00:11.206Z,100126.47
2022-11-09T06:02:37.705Z,100132.38
2022-11-09T06:05:04.211Z,100120.03
2022-11-09T06:07:30.511Z,100121.06
2022-11-09T06:09:56.875Z,100126.75
2022-11-09T06:12:23.218Z,100130.28
2022-11-09T06:14:49.589Z,100128.63
2022-11-09T06:17:15.942Z,100133.00
2022-11-09T06:19:42.366Z,100124.25
2022-11-09T06:22:09.086Z,100134.56
2022-11-09T06:24:35.480Z,100140.88
2022-11-09T06:27:02.096Z,100136.53
2022-11-09T06:29:28.389Z,100138.25
2022-11-09T06:31:55.291Z,100137.53
2022-11-09T06:34:21.630Z,100144.31
2022-11-09T06:36:47.963Z,100148.53
2022-11-09T06:39:14.231Z,100159.88
2022-11-09T06:41:44.699Z,100161.88
2022-11-09T06:44:13.648Z,100166.25
2022-11-09T06:46:40.118Z,100174.31
2022-11-09T06:49:06.673Z,100172.50
2022-11-09T06:51:33.003Z,100173.22
2022-11-09T06:53:59.388Z,100182.69
2022-11-09T06:56:25.808Z,100182.34
2022-11-09T06:58:52.205Z,100188.03
2022-11-09T07:01:21.632Z,100182.91
2022-11-09T07:03:47.966Z,100196.94
2022-11-09T07:06:14.528Z,100189.16
2022-11-09T07:08:41.470Z,100184.97
2022-11-09T07:11:11.796Z,100202.34
2022-11-09T07:13:39.004Z,100204.25
2022-11-09T07:16:06.477Z,100201.03
2022-11-09T07:18:33.477Z,100198.44
2022-11-09T07:20:59.918Z,100196.47
2022-11-09T07:23:26.219Z,100197.63
2022-11-09T07:25:52.893Z,100204.47
2022-11-09T07:28:19.288Z,100193.00
2022-11-09T07:30:45.684Z,100200.84
2022-11-09T07:33:18.039Z,100200.72
2022-11-09T07:35:45.196Z,100208.53
2022-11-09T07:38:11.697Z,100208.56
2022-11-09T07:40:38.225Z,100217.22
2022-11-09T07:43:06.092Z,100216.41
2022-11-09T07:45:34.351Z,100227.63
2022-11-09T07:48:09.608Z,100221.31
2022-11-09T07:50:37.374Z,100232.03
2022-11-09T07:53:05.350Z,100227.88
2022-11-09T07:55:31.626Z,100223.63
2022-11-09T07:57:59.854Z,100225.47
2022-11-09T08:00:28.389Z,100224.50
2022-11-09T08:02:54.951Z,100227.69
2022-11-09T08:05:21.623Z,100218.03
2022-11-09T08:07:48.275Z,100227.53
2022-11-09T08:10:14.827Z,100232.53
2022-11-09T08:12:41.167Z,100229.53
2022-11-09T08:15:07.962Z,100236.31
2022-11-09T08:17:34.351Z,100237.81
2022-11-09T08:20:00.712Z,100238.44
2022-11-09T08:22:27.079Z,100231.94
2022-11-09T08:24:53.487Z,100232.56
2022-11-09T08:27:19.920Z,100234.47
2022-11-09T08:29:46.255Z,100239.66
2022-11-09T08:32:12.558Z,100231.13
2022-11-09T08:34:38.849Z,100231.09
2022-11-09T08:37:05.330Z,100234.69
2022-11-09T08:39:31.603Z,100236.13
2022-11-09T08:41:58.241Z,100230.81
2022-11-09T08:44:24.556Z,100225.56
2022-11-09T08:46:50.931Z,100226.78
2022-11-09T08:49:17.860Z,100226.69
2022-11-09T08:51:44.151Z,100230.84
2022-11-09T08:54:11.182Z,100224.47
2022-11-09T08:56:37.502Z,100224.41
2022-11-09T08:59:03.807Z,100222.13
2022-11-09T09:01:30.151Z,100226.88
2022-11-09T09:03:56.502Z,100225.47
2022-11-09T09:06:26.869Z,100229.06
2022-11-09T09:08:56.120Z,100226.28
2022-11-09T09:11:22.539Z,100226.09
2022-11-09T09:13:48.886Z,100232.63
2022-11-09T09:16:16.153Z,100236.00
2022-11-09T09:18:42.974Z,100230.50
2022-11-09T09:21:10.732Z,100238.78
2022-11-09T09:23:37.065Z,100236.84
2022-11-09T09:26:04.196Z,100245.19
2022-11-09T09:28:30.638Z,100245.91
2022-11-09T09:31:01.356Z,100242.06
2022-11-09T09:33:28.181Z,100249.56
2022-11-09T09:35:58.513Z,100249.44
2022-11-09T09:38:28.850Z,100253.44
2022-11-09T09:41:02.560Z,100252.66
2022-11-09T09:43:42.529Z,100250.69
2022-11-09T09:46:20.045Z,100243.88
2022-11-09T09:48:51.814Z,100249.88
2022-11-09T09:51:47.343Z,100251.47
2022-11-09T09:54:26.341Z,100264.91
2022-11-09T09:56:58.246Z,100262.16
2022-11-09T09:59:38.470Z,100273.28
2022-11-09T10:02:18.650Z,100268.94
2022-11-09T10:04:45.172Z,100267.91
2022-11-09T10:07:34.639Z,100272.13
2022-11-09T10:10:18.494Z,100261.69
2022-11-09T10:12:44.732Z,100261.16
2022-11-09T10:15:20.998Z,100274.38
2022-11-09T10:18:01.749Z,100274.63
2022-11-09T10:20:51.714Z,100278.88
2022-11-09T10:23:39.809Z,100269.13
2022-11-09T10:26:42.815Z,100275.97
2022-11-09T10:29:35.002Z,100267.06
2022-11-09T10:32:12.556Z,100266.94
2022-11-09T10:34:48.676Z,100268.38
2022-11-09T10:37:19.369Z,100271.81
2022-11-09T10:39:51.369Z,100265.59
2022-11-09T10:42:17.689Z,100260.16
2022-11-09T10:44:44.003Z,100261.06
2022-11-09T10:47:18.491Z,100261.19
2022-11-09T10:49:45.724Z,100258.56
2022-11-09T10:52:43.029Z,100269.78
2022-11-09T10:55:28.525Z,100261.91
2022-11-09T10:58:02.375Z,100255.00
2022-11-09T11:00:29.186Z,100256.19
2022-11-09T11:02:55.971Z,100261.84
2022-11-09T11:05:26.182Z,100260.28
2022-11-09T11:07:52.560Z,100259.75
2022-11-09T11:10:20.738Z,100268.75
2022-11-09T11:13:07.489Z,100261.09
2022-11-09T11:15:42.002Z,100266.75
2022-11-09T11:18:16.935Z,100256.91
2022-11-09T11:20:43.256Z,100259.09
2022-11-09T11:23:14.442Z,100258.97
2022-11-09T11:25:55.185Z,100258.47
2022-11-09T11:28:39.393Z,100258.66
2022-11-09T11:31:12.862Z,100263.41
2022-11-09T11:33:39.368Z,100257.66
2022-11-09T11:36:37.805Z,100260.44
2022-11-09T11:39:45.427Z,100253.41
2022-11-09T11:42:32.596Z,100256.59
2022-11-09T11:45:39.565Z,100262.63
2022-11-09T11:48:32.975Z,100263.47
2022-11-09T11:51:37.191Z,100262.75
2022-11-09T11:54:16.362Z,100265.69
2022-11-09T11:56:47.821Z,100261.28
2022-11-09T11:59:46.927Z,100267.72
2022-11-09T12:02:41.353Z,100270.03
2022-11-09T12:05:17.092Z,100272.66
2022-11-09T12:08:23.484Z,100272.84
2022-11-09T12:11:18.114Z,100276.50
2022-11-09T12:14:13.182Z,100265.34
2022-11-09T12:17:03.329Z,100262.16
2022-11-09T12:19:41.488Z,100269.09
2022-11-09T12:22:39.403Z,100266.34
2022-11-09T12:25:24.148Z,100264.91
2022-11-09T12:28:06.959Z,100260.28
2022-11-09T12:30:51.068Z,100257.22
2022-11-09T12:33:46.760Z,100258.16
2022-11-09T12:36:21.472Z,100252.44
2022-11-09T12:38:53.750Z,100258.88
2022-11-09T12:41:24.005Z,100258.38
2022-11-09T12:44:00.768Z,100258.59
2022-11-09T12:46:35.165Z,100251.59
2022-11-09T12:49:04.268Z,100248.91
2022-11-09T12:51:33.005Z,100254.16
2022-11-09T12:54:09.814Z,100260.25
2022-11-09T12:56:51.777Z,100259.41
2022-11-09T12:59:27.262Z,100263.44
2022-11-09T13:01:58.425Z,100263.00
2022-11-09T13:04:25.731Z,100267.06
2022-11-09T13:07:07.562Z,100269.03
2022-11-09T13:09:44.493Z,100258.53
2022-11-09T13:12:34.701Z,100256.91
2022-11-09T13:15:24.702Z,100254.31
2022-11-09T13:18:01.496Z,100269.75
2022-11-09T13:26:51.993Z,100265.03
2022-11-09T13:29:18.277Z,100265.91
2022-11-09T13:32:05.615Z,100272.91
2022-11-09T13:34:46.675Z,100273.88
2022-11-09T13:37:41.041Z,100276.38
2022-11-09T13:40:32.415Z,100272.81
2022-11-09T13:43:04.777Z,100274.47
2022-11-09T13:45:47.038Z,100277.25
2022-11-09T13:48:34.559Z,100275.97
2022-11-09T13:51:05.326Z,100286.53
2022-11-09T13:53:37.387Z,100287.75
2022-11-09T13:56:28.249Z,100298.25
2022-11-09T13:58:59.250Z,100297.00
2022-11-09T14:01:33.055Z,100297.38
2022-11-09T14:04:02.272Z,100308.38
2022-11-09T14:06:29.787Z,100298.59
2022-11-09T14:08:57.831Z,100299.47
2022-11-09T14:11:40.149Z,100305.88
2022-11-09T14:14:09.815Z,100305.41
2022-11-09T14:16:56.901Z,100295.81
2022-11-09T14:19:59.043Z,100295.28
2022-11-09T14:22:27.386Z,100299.84
2022-11-09T14:24:53.692Z,100295.47
2022-11-09T14:27:21.813Z,100295.91
2022-11-09T14:29:56.772Z,100302.00
2022-11-09T14:32:26.653Z,100295.94
2022-11-09T14:34:53.081Z,100303.03
2022-11-09T14:37:21.116Z,100303.16
2022-11-09T14:39:49.938Z,100305.16
2022-11-09T14:42:23.218Z,100313.59
2022-11-09T14:44:49.964Z,100319.75
2022-11-09T14:47:19.150Z,100316.28
2022-11-09T14:49:46.528Z,100318.31
2022-11-09T14:52:17.593Z,100320.25
2022-11-09T14:54:46.145Z,100320.94
2022-11-09T14:57:17.121Z,100328.25
2022-11-09T14:59:45.101Z,100320.34
2022-11-09T15:02:17.508Z,100331.75
2022-11-09T15:05:00.954Z,100327.97
2022-11-09T15:07:32.668Z,100322.63
2022-11-09T15:10:07.821Z,100324.19
2022-11-09T15:12:35.649Z,100317.84
2022-11-09T15:15:05.712Z,100328.56
2022-11-09T15:17:35.920Z,100328.59
2022-11-09T15:20:24.683Z,100327.63
2022-11-09T15:22:52.960Z,100330.94
2022-11-09T15:25:24.027Z,100332.47
2022-11-09T15:28:01.290Z,100318.19
2022-11-09T15:30:28.800Z,100321.09
2022-11-09T15:32:55.138Z,100324.50
2022-11-09T15:35:22.347Z,100322.06
2022-11-09T15:37:51.491Z,100323.22
2022-11-09T15:40:24.255Z,100321.88
2022-11-09T15:42:50.908Z,100328.03
2022-11-09T15:45:20.491Z,100324.50
2022-11-09T15:47:55.933Z,100328.16
2022-11-09T15:50:25.744Z,100326.88
2022-11-09T15:52:52.448Z,100337.25
2022-11-09T15:55:22.342Z,100330.94
2022-11-09T15:57:50.567Z,100341.34
2022-11-09T16:00:20.976Z,100342.19
2022-11-09T16:02:47.845Z,100340.25
2022-11-09T16:05:14.906Z,100341.88
2022-11-09T16:07:52.338Z,100345.81
2022-11-09T16:10:20.335Z,100339.72
2022-11-09T16:12:47.079Z,100330.28
2022-11-09T16:15:13.567Z,100337.97
2022-11-09T16:17:39.877Z,100343.41
2022-11-09T16:20:07.112Z,100342.25
2022-11-09T16:22:33.776Z,100339.78
2022-11-09T16:25:00.265Z,100341.59
2022-11-09T16:27:48.912Z,100346.28
2022-11-09T16:30:14.297Z,100348.28
2022-11-09T16:32:40.798Z,100340.59
2022-11-09T16:35:26.244Z,100352.78
2022-11-09T16:37:55.911Z,100354.16
2022-11-09T16:40:22.386Z,100349.69
2022-11-09T16:42:49.098Z,100349.88
2022-11-09T16:45:17.029Z,100355.13
2022-11-09T16:47:56.697Z,100358.75
2022-11-09T16:50:23.946Z,100356.47
2022-11-09T16:52:50.410Z,100377.59
2022-11-09T16:55:16.843Z,100383.56
2022-11-09T16:57:43.225Z,100378.88
2022-11-09T17:00:10.066Z,100376.91
2022-11-09T17:02:36.372Z,100390.28
2022-11-09T17:05:03.224Z,100393.31
2022-11-09T17:07:29.641Z,100387.91
2022-11-09T17:09:55.967Z,100391.53
2022-11-09T17:12:22.315Z,100391.97
2022-11-09T17:14:48.629Z,100397.56
2022-11-09T17:17:21.175Z,100403.81
2022-11-09T17:19:48.900Z,100407.50
2022-11-09T17:22:15.662Z,100409.22
2022-11-09T17:24:41.954Z,100417.78
2022-11-09T17:27:09.635Z,100408.34
2022-11-09T17:29:37.666Z,100417.22
2022-11-09T17:32:05.566Z,100419.09
2022-11-09T17:34:31.899Z,100420.81
2022-11-09T17:37:04.075Z,100423.28
2022-11-09T17:39:31.303Z,100413.63
2022-11-09T17:41:57.613Z,100417.28
2022-11-09T17:44:23.939Z,100406.59
2022-11-09T17:46:50.340Z,100404.00
2022-11-09T17:49:16.682Z,100417.88
2022-11-09T17:51:43.215Z,100419.66
2022-11-09T17:54:09.499Z,100427.41
2022-11-09T17:56:35.977Z,100430.84
2022-11-09T17:59:04.887Z,100427.06
2022-11-09T18:01:35.099Z,100428.72
2022-11-09T18:04:08.833Z,100426.09
2022-11-09T18:06:35.813Z,100428.44
2022-11-09T18:09:39.029Z,100431.72
2022-11-09T18:11:49.594Z,100439.66
2022-11-09T18:14:15.990Z,100444.94
2022-11-09T18:16:42.337Z,100449.25
2022-11-09T18:19:08.831Z,100452.78
2022-11-09T18:21:35.116Z,100453.06
2022-11-09T18:24:01.419Z,100461.91
2022-11-09T18:26:28.308Z,100467.22
2022-11-09T18:28:57.641Z,100479.38
2022-11-09T18:31:23.949Z,100468.06
2022-11-09T18:33:50.766Z,100476.97
2022-11-09T18:36:19.230Z,100469.47
2022-11-09T18:38:45.826Z,100481.59
2022-11-09T18:41:15.441Z,100481.84
2022-11-09T18:43:42.013Z,100485.44
2022-11-09T18:46:10.830Z,100496.66
2022-11-09T18:48:37.552Z,100492.28
2022-11-09T18:51:05.744Z,100493.06
2022-11-09T18:53:44.075Z,100488.22
2022-11-09T18:56:18.885Z,100492.47
2022-11-09T18:58:46.116Z,100496.03
2022-11-09T19:01:12.459Z,100497.78
2022-11-09T19:03:38.781Z,100501.25
2022-11-09T19:06:11.345Z,100509.09
2022-11-09T19:08:56.098Z,100507.34
2022-11-09T19:11:22.591Z,100513.44
2022-11-09T19:13:48.917Z,100529.38
2022-11-09T19:16:16.041Z,100534.53
2022-11-09T19:18:42.574Z,100538.19
2022-11-09T19:21:24.660Z,100529.72
2022-11-09T19:23:51.429Z,100533.31
2022-11-09T19:26:17.809Z,100541.31
2022-11-09T19:28:44.142Z,100534.41
2022-11-09T19:31:14.914Z,100540.38
2022-11-09T19:33:41.225Z,100540.81
2022-11-09T19:36:29.130Z,100546.91
2022-11-09T19:38:56.482Z,100559.22
2022-11-09T19:41:24.553Z,100547.06
2022-11-09T19:43:52.446Z,100557.41
2022-11-09T19:46:18.786Z,100557.47
2022-11-09T19:48:46.186Z,100567.91
2022-11-09T19:51:14.306Z,100563.66
2022-11-09T19:53:42.676Z,100574.09
2022-11-09T19:56:09.477Z,100570.59
2022-11-09T19:58:36.181Z,100575.84
2022-11-09T20:01:08.060Z,100577.59
2022-11-09T20:03:35.090Z,100584.44
2022-11-09T20:06:02.617Z,100588.03
2022-11-09T20:08:28.988Z,100581.00
2022-11-09T20:10:55.361Z,100584.59
2022-11-09T20:13:22.627Z,100587.13
2022-11-09T20:15:49.039Z,100593.16
2022-11-09T20:18:15.642Z,100600.94
2022-11-09T20:20:41.926Z,100598.50
2022-11-09T20:23:08.227Z,100606.28
2022-11-09T20:25:34.644Z,100603.66
2022-11-09T20:28:00.926Z,100619.31
2022-11-09T20:30:27.225Z,100612.34
2022-11-09T20:32:53.505Z,100610.56
2022-11-09T20:35:20.229Z,100612.28
2022-11-09T20:37:46.544Z,100613.06
2022-11-09T20:40:13.156Z,100608.59
2022-11-09T20:42:39.419Z,100614.66
2022-11-09T20:45:06.146Z,100618.97
2022-11-09T20:48:02.017Z,100612.06
2022-11-09T20:50:19.905Z,100618.94
2022-11-09T20:52:46.215Z,100620.50
2022-11-09T20:55:12.622Z,100623.06
2022-11-09T20:57:38.946Z,100622.19
2022-11-09T21:00:05.992Z,100624.88
2022-11-09T21:02:32.283Z,100632.75
2022-11-09T21:04:58.571Z,100638.03
2022-11-09T21:07:24.850Z,100640.66
2022-11-09T21:09:51.163Z,100650.19
2022-11-09T21:12:24.717Z,100651.94
2022-11-09T21:14:52.827Z,100650.25
2022-11-09T21:17:19.233Z,100657.22
2022-11-09T21:19:45.802Z,100666.81
2022-11-09T21:22:12.113Z,100658.91
2022-11-09T21:24:57.025Z,100665.03
2022-11-09T21:27:46.829Z,100664.31
2022-11-09T21:30:14.485Z,100674.72
2022-11-09T21:32:40.997Z,100675.53
2022-11-09T21:35:07.854Z,100684.16
2022-11-09T21:37:34.252Z,100685.88
2022-11-09T21:40:00.585Z,100689.19
2022-11-09T21:42:26.913Z,100704.81
2022-11-09T21:44:53.208Z,100700.50
2022-11-09T21:47:19.509Z,100707.41
2022-11-09T21:49:45.997Z,100713.44
2022-11-09T21:52:12.290Z,100716.09
2022-11-09T21:54:38.870Z,100719.53
2022-11-09T21:57:05.155Z,100722.16
2022-11-09T21:59:31.446Z,100710.03
2022-11-09T22:01:57.903Z,100722.16
2022-11-09T22:04:24.282Z,100723.03
2022-11-09T22:06:50.605Z,100722.94
2022-11-09T22:09:18.235Z,100735.09
2022-11-09T22:12:03.601Z,100725.50
2022-11-09T22:14:48.583Z,100721.25
2022-11-09T22:17:15.106Z,100734.22
2022-11-09T22:20:00.168Z,100742.03
2022-11-09T22:22:30.902Z,100739.38
2022-11-09T22:24:57.955Z,100757.63
2022-11-09T22:27:24.291Z,100755.88
2022-11-09T22:29:50.870Z,100757.63
2022-11-09T22:32:17.422Z,100756.66
2022-11-09T22:34:44.620Z,100756.59
2022-11-09T22:37:10.989Z,100745.34
2022-11-09T22:39:37.286Z,100762.78
2022-11-09T22:42:03.652Z,100764.59
2022-11-09T22:44:29.952Z,100765.47
2022-11-09T22:46:56.249Z,100783.78
2022-11-09T22:49:22.582Z,100782.88
2022-11-09T22:51:49.137Z,100780.97
2022-11-09T22:54:15.428Z,100790.59
2022-11-09T22:56:41.698Z,100779.25
2022-11-09T22:59:08.136Z,100790.63
2022-11-09T23:01:34.542Z,100787.19
2022-11-09T23:04:00.876Z,100795.78
2022-11-09T23:06:27.192Z,100794.94
2022-11-09T23:08:53.512Z,100798.44
2022-11-09T23:11:22.625Z,100803.75
2022-11-09T23:13:53.976Z,100801.13
2022-11-09T23:16:21.830Z,100802.81
2022-11-09T23:18:54.305Z,100818.53
2022-11-09T23:21:25.322Z,100820.22
2022-11-09T23:23:53.208Z,100825.41
2022-11-09T23:26:20.149Z,100828.09
2022-11-09T23:28:46.745Z,100835.09
2022-11-09T23:31:15.809Z,100829.03
2022-11-09T23:33:42.924Z,100835.03
2022-11-09T23:36:10.200Z,100841.16
2022-11-09T23:38:38.418Z,100840.44
2022-11-09T23:41:07.977Z,100844.72
2022-11-09T23:43:35.645Z,100848.97
2022-11-09T23:46:07.813Z,100851.75
2022-11-09T23:48:34.440Z,100857.81
2022-11-09T23:51:01.770Z,100858.69
2022-11-09T23:53:29.999Z,100863.84
2022-11-09T23:56:05.015Z,100871.66
2022-11-09T23:58:31.985Z,100875.97
